Nora, Illinois
Current Conditions -  °F | °C
As of 2:35 AM on Friday 24 Oct 2014 (Local Time) from KEFT Reporting Station
Haze Haze  
Wind Chill: 50°   Ceiling: 500
Heat Index: 50°   Visibility: 4mi
Dew Point: 50°   Wind: 6mph
Humidity: 100%   Direction: 270°W
Pressure: 30.04"   Gusts: NA
Location:  42.46°N, 89.95°W
Report Text: KEFT 240735Z AUTO 27005KT 4SM BR OVC005 10/10 A3004 RMK AO2
Loading
Personal Weather Stations






























Interactive Weather Map
Tropical Storm Tracking
New forecast layout! Learn more

10-Day Weather Forecast

Advertisements
Track Severe Weather on mobile